createdAt,value
2022-10-23T00:02:26.412Z,4.00
2022-10-23T00:04:56.272Z,3.67
2022-10-23T00:07:26.161Z,3.90
2022-10-23T00:09:55.959Z,4.67
2022-10-23T00:12:27.421Z,5.27
2022-10-23T00:14:57.258Z,4.47
2022-10-23T00:17:27.063Z,4.03
2022-10-23T00:19:56.873Z,3.43
2022-10-23T00:22:26.750Z,3.83
2022-10-23T00:24:56.570Z,4.12
2022-10-23T00:27:26.701Z,3.97
2022-10-23T00:29:56.910Z,3.50
2022-10-23T00:32:27.753Z,2.87
2022-10-23T00:34:57.530Z,3.12
2022-10-23T00:37:27.516Z,3.20
2022-10-23T00:39:57.748Z,2.80
2022-10-23T00:42:27.728Z,2.53
2022-10-23T00:45:12.787Z,2.25
2022-10-23T00:47:42.810Z,2.30
2022-10-23T00:50:12.886Z,1.90
2022-10-23T00:52:45.736Z,2.20
2022-10-23T00:55:16.375Z,1.80
2022-10-23T00:57:49.203Z,2.08
2022-10-23T01:00:24.539Z,1.97
2022-10-23T01:02:55.880Z,1.25
2022-10-23T01:05:34.559Z,2.37
2022-10-23T01:08:23.253Z,3.17
2022-10-23T01:11:01.759Z,2.53
2022-10-23T01:13:35.049Z,3.30
2022-10-23T01:16:16.637Z,3.70
2022-10-23T01:18:49.625Z,3.00
2022-10-23T01:21:47.696Z,4.20
2022-10-23T01:24:28.028Z,4.53
2022-10-23T01:27:06.825Z,4.50
2022-10-23T01:29:54.803Z,4.13
2022-10-23T01:32:29.344Z,4.57
2022-10-23T01:35:02.279Z,4.63
2022-10-23T01:37:38.323Z,5.70
2022-10-23T01:40:11.254Z,5.80
2022-10-23T01:42:44.755Z,5.20
2022-10-23T01:45:20.574Z,5.20
2022-10-23T01:47:51.718Z,4.73
2022-10-23T01:50:24.459Z,4.87
2022-10-23T01:52:56.127Z,4.80
2022-10-23T01:55:27.085Z,4.65
2022-10-23T01:57:59.702Z,4.97
2022-10-23T02:00:32.347Z,4.08
2022-10-23T02:03:04.699Z,4.60
2022-10-23T02:05:35.807Z,4.53
2022-10-23T02:08:07.848Z,5.42
2022-10-23T02:10:49.972Z,4.83
2022-10-23T02:13:51.471Z,4.37
2022-10-23T02:16:40.762Z,3.67
2022-10-23T02:19:34.534Z,4.02
2022-10-23T02:22:11.599Z,4.07
2022-10-23T02:24:56.948Z,4.12
2022-10-23T02:27:41.934Z,4.00
2022-10-23T02:30:15.594Z,4.00
2022-10-23T02:32:49.870Z,3.35
2022-10-23T02:35:22.217Z,3.77
2022-10-23T02:37:58.516Z,4.67
2022-10-23T02:40:35.056Z,3.42
2022-10-23T02:43:10.512Z,3.30
2022-10-23T02:45:49.177Z,3.40
2022-10-23T02:48:25.076Z,3.30
2022-10-23T02:51:04.728Z,2.77
2022-10-23T02:53:42.986Z,3.40
2022-10-23T02:56:15.616Z,3.53
2022-10-23T02:58:52.791Z,3.37
2022-10-23T03:01:25.886Z,3.08
2022-10-23T03:03:59.615Z,2.87
2022-10-23T03:06:29.506Z,3.17
2022-10-23T03:09:08.769Z,2.87
2022-10-23T03:11:39.833Z,2.60
2022-10-23T03:14:10.485Z,3.08
2022-10-23T03:16:40.015Z,3.43
2022-10-23T03:19:12.975Z,3.00
2022-10-23T03:21:42.993Z,2.63
2022-10-23T03:24:12.821Z,2.72
2022-10-23T03:29:13.077Z,2.60
2022-10-23T03:31:47.504Z,2.40
2022-10-23T03:34:19.296Z,2.03
2022-10-23T03:36:49.037Z,2.95
2022-10-23T03:39:20.467Z,3.00
2022-10-23T03:41:50.627Z,2.60
2022-10-23T03:44:20.289Z,2.83
2022-10-23T03:46:50.106Z,2.77
2022-10-23T03:49:19.754Z,2.90
2022-10-23T03:51:51.208Z,2.23
2022-10-23T03:54:27.507Z,2.53
2022-10-23T03:56:58.052Z,2.70
2022-10-23T03:59:28.673Z,2.37
2022-10-23T04:02:01.549Z,2.67
2022-10-23T04:04:38.402Z,2.90
2022-10-23T04:07:10.453Z,3.00
2022-10-23T04:09:44.581Z,2.47
2022-10-23T04:12:16.198Z,2.70
2022-10-23T04:14:46.303Z,2.67
2022-10-23T04:17:16.248Z,3.12
2022-10-23T04:19:46.072Z,2.27
2022-10-23T04:22:15.892Z,3.02
2022-10-23T04:24:46.799Z,2.80
2022-10-23T04:27:18.299Z,3.17
2022-10-23T04:29:49.212Z,2.33
2022-10-23T04:32:19.191Z,3.10
2022-10-23T04:34:49.870Z,3.22
2022-10-23T04:37:19.736Z,2.20
2022-10-23T04:39:49.534Z,2.80
2022-10-23T04:42:19.200Z,2.67
2022-10-23T04:44:49.473Z,2.33
2022-10-23T04:47:19.224Z,2.07
2022-10-23T04:49:50.561Z,2.60
2022-10-23T04:55:05.732Z,2.27
2022-10-23T04:57:37.241Z,2.77
2022-10-23T05:00:11.443Z,2.67
2022-10-23T05:02:46.390Z,2.73
2022-10-23T05:05:18.241Z,3.42
2022-10-23T05:07:58.459Z,3.77
2022-10-23T05:10:39.572Z,2.83
2022-10-23T05:13:19.851Z,3.40
2022-10-23T05:15:51.386Z,2.97
2022-10-23T05:18:29.594Z,3.17
2022-10-23T05:21:02.440Z,3.60
2022-10-23T05:23:34.353Z,4.03
2022-10-23T05:26:05.842Z,2.90
2022-10-23T05:28:35.701Z,4.03
2022-10-23T05:31:07.293Z,4.40
2022-10-23T05:33:41.014Z,4.43
2022-10-23T05:36:12.668Z,3.93
2022-10-23T05:38:43.552Z,3.17
2022-10-23T05:41:15.059Z,3.70
2022-10-23T05:43:46.238Z,2.80
2022-10-23T05:46:35.759Z,3.33
2022-10-23T05:49:07.088Z,3.77
2022-10-23T05:51:39.669Z,3.35
2022-10-23T05:54:27.730Z,4.73
2022-10-23T05:56:59.254Z,3.27
2022-10-23T05:59:33.485Z,3.17
2022-10-23T06:02:23.490Z,3.07
2022-10-23T06:04:55.487Z,3.70
2022-10-23T06:07:35.742Z,3.67
2022-10-23T06:10:07.494Z,3.83
2022-10-23T06:12:38.993Z,5.33
2022-10-23T06:15:10.349Z,4.33
2022-10-23T06:17:48.801Z,4.87
2022-10-23T06:20:23.143Z,3.95
2022-10-23T06:22:54.147Z,3.95
2022-10-23T06:25:25.663Z,3.47
2022-10-23T06:27:55.543Z,3.93
2022-10-23T06:30:26.271Z,3.40
2022-10-23T06:32:56.381Z,4.10
2022-10-23T06:35:31.774Z,5.20
2022-10-23T06:38:01.575Z,3.17
2022-10-23T06:40:33.072Z,3.17
2022-10-23T06:43:06.862Z,4.27
2022-10-23T06:45:38.367Z,3.00
2022-10-23T06:48:20.824Z,3.97
2022-10-23T06:50:58.438Z,2.77
2022-10-23T06:53:37.122Z,3.87
2022-10-23T06:56:17.604Z,4.40
2022-10-23T06:58:48.556Z,3.53
2022-10-23T07:01:18.803Z,4.37
2022-10-23T07:03:50.175Z,3.85
2022-10-23T07:06:22.716Z,5.03
2022-10-23T07:08:55.327Z,4.07
2022-10-23T07:11:33.594Z,4.20
2022-10-23T07:14:04.016Z,4.50
2022-10-23T07:16:33.797Z,4.93
2022-10-23T07:19:06.609Z,4.60
2022-10-23T07:21:53.438Z,5.00
2022-10-23T07:24:24.716Z,4.30
2022-10-23T07:26:56.223Z,4.47
2022-10-23T07:29:27.279Z,3.93
2022-10-23T07:31:58.008Z,4.33
2022-10-23T07:34:44.521Z,5.00
2022-10-23T07:37:21.497Z,4.37
2022-10-23T07:39:53.382Z,4.00
2022-10-23T07:42:23.102Z,3.73
2022-10-23T07:44:53.170Z,4.37
2022-10-23T07:47:23.469Z,4.13
2022-10-23T07:49:53.452Z,3.67
2022-10-23T07:52:23.604Z,3.57
2022-10-23T07:55:14.127Z,3.70
2022-10-23T07:57:45.640Z,3.20
2022-10-23T08:00:17.322Z,3.50
2022-10-23T08:02:50.834Z,3.03
2022-10-23T08:05:22.079Z,2.23
2022-10-23T08:07:53.678Z,2.70
2022-10-23T08:10:24.609Z,3.17
2022-10-23T08:12:54.557Z,2.23
2022-10-23T08:15:26.141Z,2.17
2022-10-23T08:17:57.636Z,2.20
2022-10-23T08:22:57.913Z,2.27
2022-10-23T08:25:28.779Z,2.50
2022-10-23T08:27:59.285Z,2.45
2022-10-23T08:30:30.249Z,2.70
2022-10-23T08:33:00.182Z,1.93
2022-10-23T08:35:31.176Z,1.60
2022-10-23T08:38:00.942Z,2.50
2022-10-23T08:40:31.987Z,2.35
2022-10-23T08:43:27.860Z,2.13
2022-10-23T08:46:09.413Z,1.63
2022-10-23T08:48:50.443Z,1.70
2022-10-23T08:51:24.716Z,2.63
2022-10-23T08:54:00.114Z,2.10
2022-10-23T08:56:36.270Z,1.87
2022-10-23T08:59:36.721Z,1.90
2022-10-23T09:02:18.376Z,2.30
2022-10-23T09:04:51.847Z,1.30
2022-10-23T09:07:39.468Z,2.27
2022-10-23T09:10:24.191Z,1.90
2022-10-23T09:12:56.497Z,1.40
2022-10-23T09:15:31.764Z,1.35
2022-10-23T09:18:18.088Z,1.27
2022-10-23T09:20:48.332Z,1.60
2022-10-23T09:23:23.799Z,1.70
2022-10-23T09:25:57.699Z,1.70
2022-10-23T09:28:30.553Z,1.17
2022-10-23T09:31:15.273Z,1.50
2022-10-23T09:34:01.260Z,1.50
2022-10-23T09:36:31.160Z,2.03
2022-10-23T09:39:02.126Z,1.13
2022-10-23T09:41:37.921Z,1.80
2022-10-23T09:44:21.265Z,1.50
2022-10-23T09:47:04.573Z,1.50
2022-10-23T09:49:36.018Z,1.23
2022-10-23T09:52:12.403Z,0.85
2022-10-23T09:54:48.266Z,1.57
2022-10-23T09:57:23.981Z,1.60
2022-10-23T09:59:57.119Z,1.50
2022-10-23T10:02:34.926Z,1.10
2022-10-23T10:05:32.738Z,0.90
2022-10-23T10:08:18.659Z,1.90
2022-10-23T10:10:54.219Z,1.70
2022-10-23T10:13:42.783Z,1.10
2022-10-23T10:16:30.564Z,1.50
2022-10-23T10:19:06.913Z,1.57
2022-10-23T10:21:39.715Z,1.20
2022-10-23T10:24:21.424Z,1.13
2022-10-23T10:27:01.107Z,1.40
2022-10-23T10:29:49.302Z,1.70
2022-10-23T10:32:37.838Z,1.60
2022-10-23T10:35:29.625Z,1.70
2022-10-23T10:38:19.237Z,1.80
2022-10-23T10:41:12.753Z,1.40
2022-10-23T10:43:46.867Z,1.70
2022-10-23T10:46:46.415Z,1.43
2022-10-23T10:49:29.714Z,1.70
2022-10-23T10:52:16.550Z,1.03
2022-10-23T10:55:09.187Z,1.32
2022-10-23T10:57:43.044Z,1.45
2022-10-23T11:00:19.104Z,1.23
2022-10-23T11:02:57.467Z,1.23
2022-10-23T11:05:33.336Z,1.30
2022-10-23T11:08:12.158Z,1.30
2022-10-23T11:10:46.917Z,1.23
2022-10-23T11:13:28.236Z,1.20
2022-10-23T11:16:03.323Z,1.15
2022-10-23T11:18:35.357Z,1.93
2022-10-23T11:21:28.285Z,1.10
2022-10-23T11:24:13.029Z,1.33
2022-10-23T11:27:10.024Z,1.70
2022-10-23T11:29:54.915Z,1.60
2022-10-23T11:32:47.489Z,1.90
2022-10-23T11:35:25.240Z,2.07
2022-10-23T11:38:04.160Z,3.13
2022-10-23T11:40:34.660Z,1.77
2022-10-23T11:45:37.810Z,2.27
2022-10-23T11:48:24.958Z,1.80
2022-10-23T11:50:56.860Z,1.87
2022-10-23T11:53:36.802Z,1.80
2022-10-23T11:56:16.207Z,1.63
2022-10-23T11:58:49.701Z,1.75
2022-10-23T12:01:31.211Z,1.60
2022-10-23T12:04:04.059Z,1.90
2022-10-23T12:07:00.626Z,2.30
2022-10-23T12:09:36.438Z,1.57
2022-10-23T12:12:12.227Z,1.73
2022-10-23T12:14:45.336Z,1.23
2022-10-23T12:17:27.016Z,1.77
2022-10-23T12:20:14.883Z,2.27
2022-10-23T12:23:00.093Z,2.00
2022-10-23T12:25:54.042Z,1.80
2022-10-23T12:28:26.914Z,1.92
2022-10-23T12:31:06.067Z,1.67
2022-10-23T12:33:54.440Z,1.97
2022-10-23T12:36:35.980Z,1.97
2022-10-23T12:39:26.838Z,2.20
2022-10-23T12:41:57.541Z,2.47
2022-10-23T12:44:28.259Z,2.62
2022-10-23T12:47:00.910Z,2.07
2022-10-23T12:49:33.699Z,2.40
2022-10-23T12:52:10.027Z,2.33
2022-10-23T12:54:45.366Z,2.40
2022-10-23T12:57:26.570Z,1.62
2022-10-23T13:02:35.590Z,2.42
2022-10-23T13:05:11.651Z,2.02
2022-10-23T13:07:47.398Z,2.60
2022-10-23T13:10:20.868Z,2.13
2022-10-23T13:13:02.049Z,1.97
2022-10-23T13:15:43.565Z,2.23
2022-10-23T13:18:15.788Z,1.65
2022-10-23T13:20:58.649Z,2.67
2022-10-23T13:23:34.582Z,2.10
2022-10-23T13:26:28.086Z,1.93
2022-10-23T13:28:58.912Z,1.97
2022-10-23T13:31:37.003Z,2.10
2022-10-23T13:34:10.023Z,3.33
2022-10-23T13:36:41.345Z,1.43
2022-10-23T13:39:13.884Z,1.75
2022-10-23T13:41:46.617Z,2.70
2022-10-23T13:44:20.271Z,2.03
2022-10-23T13:46:52.268Z,1.47
2022-10-23T13:49:23.184Z,2.05
2022-10-23T13:51:56.625Z,1.60
2022-10-23T13:54:30.475Z,2.00
2022-10-23T13:57:00.584Z,1.90
2022-10-23T13:59:30.474Z,1.53
2022-10-23T14:02:00.860Z,1.60
2022-10-23T14:04:30.548Z,1.60
2022-10-23T14:07:00.681Z,1.30
2022-10-23T14:09:31.649Z,1.13
2022-10-23T14:12:01.277Z,1.82
2022-10-23T14:14:31.208Z,1.53
2022-10-23T14:17:01.190Z,2.17
2022-10-23T14:19:31.061Z,1.50
2022-10-23T14:22:00.929Z,1.37
2022-10-23T14:24:31.674Z,1.13
2022-10-23T14:27:04.831Z,1.10
2022-10-23T14:29:36.729Z,1.73
2022-10-23T14:32:06.928Z,1.40
2022-10-23T14:34:38.883Z,1.17
2022-10-23T14:37:09.232Z,1.10
2022-10-23T14:39:39.187Z,2.45
2022-10-23T14:42:08.806Z,1.43
2022-10-23T14:47:08.519Z,0.83
2022-10-23T14:49:40.118Z,2.33
2022-10-23T14:52:10.114Z,3.97
2022-10-23T14:54:41.375Z,1.80
2022-10-23T14:57:12.999Z,1.45
2022-10-23T14:59:43.347Z,1.00
2022-10-23T15:02:14.901Z,1.60
2022-10-23T15:04:44.782Z,1.70
2022-10-23T15:07:16.656Z,2.13
2022-10-23T15:09:48.410Z,1.83
2022-10-23T15:12:18.356Z,2.00
2022-10-23T15:14:49.140Z,1.93
2022-10-23T15:17:18.961Z,2.05
2022-10-23T15:19:48.840Z,1.47
2022-10-23T15:22:19.617Z,2.08
2022-10-23T15:24:49.491Z,1.80
2022-10-23T15:27:19.866Z,2.30
2022-10-23T15:29:49.752Z,2.07
2022-10-23T15:32:19.765Z,1.47
2022-10-23T15:34:49.826Z,3.73
2022-10-23T15:37:19.322Z,1.40
2022-10-23T15:39:50.011Z,2.80
2022-10-23T15:42:19.891Z,2.95
2022-10-23T15:44:49.799Z,2.10
2022-10-23T15:47:19.344Z,1.70
2022-10-23T15:49:49.175Z,1.63
2022-10-23T15:52:18.734Z,1.83
2022-10-23T15:54:48.579Z,1.10
2022-10-23T15:57:18.325Z,2.60
2022-10-23T15:59:48.129Z,1.97
2022-10-23T16:02:17.791Z,2.53
2022-10-23T16:04:47.644Z,3.37
2022-10-23T16:07:17.159Z,2.97
2022-10-23T16:09:46.961Z,2.40
2022-10-23T16:12:17.158Z,2.57
2022-10-23T16:14:47.334Z,2.60
2022-10-23T16:17:17.689Z,2.47
2022-10-23T16:19:47.775Z,3.33
2022-10-23T16:22:17.515Z,2.03
2022-10-23T16:24:47.354Z,2.07
2022-10-23T16:27:17.322Z,2.20
2022-10-23T16:29:47.133Z,2.20
2022-10-23T16:32:16.713Z,1.93
2022-10-23T16:34:46.694Z,2.07
2022-10-23T16:37:16.271Z,1.70
2022-10-23T16:39:50.790Z,1.43
2022-10-23T16:42:40.586Z,2.70
2022-10-23T16:45:17.718Z,1.93
2022-10-23T16:47:47.526Z,2.80
2022-10-23T16:50:17.492Z,1.92
2022-10-23T16:52:48.376Z,2.87
2022-10-23T16:55:18.877Z,3.97
2022-10-23T16:57:48.678Z,3.83
2022-10-23T17:00:20.397Z,4.08
2022-10-23T17:02:51.212Z,4.50
2022-10-23T17:05:21.052Z,4.60
2022-10-23T17:07:51.838Z,3.93
2022-10-23T17:10:21.857Z,4.22
2022-10-23T17:12:51.660Z,4.40
2022-10-23T17:15:21.271Z,4.93
2022-10-23T17:17:51.077Z,6.40
2022-10-23T17:20:20.742Z,4.50
2022-10-23T17:22:50.731Z,5.83
2022-10-23T17:25:20.556Z,5.95
2022-10-23T17:27:50.637Z,5.20
2022-10-23T17:30:20.531Z,5.85
2022-10-23T17:32:50.339Z,5.83
2022-10-23T17:35:20.217Z,5.78
2022-10-23T17:37:50.591Z,6.07
2022-10-23T17:40:24.867Z,7.60
2022-10-23T17:42:52.092Z,8.50
2022-10-23T17:45:21.636Z,8.37
2022-10-23T17:47:51.438Z,9.53
2022-10-23T17:50:20.983Z,10.87
2022-10-23T17:52:50.857Z,11.20
2022-10-23T17:55:20.713Z,11.08
2022-10-23T17:57:50.527Z,12.03
2022-10-23T18:00:20.450Z,10.82
2022-10-23T18:02:50.269Z,10.97
2022-10-23T18:05:20.129Z,10.88
2022-10-23T18:07:51.462Z,10.13
2022-10-23T18:10:21.211Z,9.95
2022-10-23T18:12:51.353Z,12.55
2022-10-23T18:15:21.080Z,11.33
2022-10-23T18:17:50.893Z,10.83
2022-10-23T18:20:24.739Z,10.17
2022-10-23T18:22:54.631Z,10.37
2022-10-23T18:25:24.297Z,9.60
2022-10-23T18:27:54.129Z,10.33
2022-10-23T18:30:23.752Z,9.63
2022-10-23T18:32:53.647Z,10.33
2022-10-23T18:35:23.181Z,9.60
2022-10-23T18:37:52.998Z,8.67
2022-10-23T18:40:25.609Z,9.50
2022-10-23T18:42:54.062Z,9.00
2022-10-23T18:45:23.943Z,8.53
2022-10-23T18:47:53.930Z,9.83
2022-10-23T18:50:24.732Z,10.28
2022-10-23T18:55:24.089Z,8.88
2022-10-23T18:57:53.914Z,7.77
2022-10-23T19:00:23.416Z,8.57
2022-10-23T19:02:53.307Z,8.80
2022-10-23T19:05:22.878Z,8.83
2022-10-23T19:07:54.122Z,9.37
2022-10-23T19:10:26.671Z,8.50
2022-10-23T19:12:59.865Z,7.33
2022-10-23T19:15:30.215Z,6.20
2022-10-23T19:18:00.753Z,6.37
2022-10-23T19:20:30.708Z,7.30
2022-10-23T19:23:02.155Z,6.08
2022-10-23T19:25:34.383Z,7.17
2022-10-23T19:28:04.928Z,7.37
2022-10-23T19:30:36.364Z,5.83
2022-10-23T19:33:08.222Z,7.16
2022-10-23T19:35:38.029Z,6.67
2022-10-23T19:38:09.737Z,4.90
2022-10-23T19:40:39.552Z,6.73
2022-10-23T19:43:09.171Z,7.73
2022-10-23T19:45:39.253Z,7.72
2022-10-23T19:48:10.095Z,7.03
2022-10-23T19:50:41.491Z,7.10
2022-10-23T19:53:11.847Z,6.20
2022-10-23T19:55:41.346Z,5.87
2022-10-23T19:58:12.078Z,7.00
2022-10-23T20:03:11.188Z,5.35
2022-10-23T20:05:43.737Z,4.90
2022-10-23T20:08:13.389Z,4.67
2022-10-23T20:10:46.596Z,3.93
2022-10-23T20:13:19.674Z,3.57
2022-10-23T20:15:47.498Z,4.75
2022-10-23T20:18:17.367Z,4.28
2022-10-23T20:20:47.471Z,4.53
2022-10-23T20:23:17.180Z,4.37
2022-10-23T20:25:48.410Z,6.05
2022-10-23T20:28:18.868Z,4.20
2022-10-23T20:30:48.465Z,4.33
2022-10-23T20:33:19.335Z,3.52
2022-10-23T20:35:49.427Z,3.77
2022-10-23T20:38:19.161Z,4.10
2022-10-23T20:40:49.128Z,3.63
2022-10-23T20:43:18.813Z,3.60
2022-10-23T20:45:48.640Z,4.40
2022-10-23T20:48:18.494Z,4.33
2022-10-23T20:50:48.371Z,3.37
2022-10-23T20:53:19.259Z,3.80
2022-10-23T20:55:49.230Z,3.83
2022-10-23T20:58:18.833Z,3.87
2022-10-23T21:00:48.791Z,3.17
2022-10-23T21:03:18.596Z,2.80
2022-10-23T21:05:48.453Z,2.97
2022-10-23T21:08:18.043Z,3.37
2022-10-23T21:10:48.184Z,3.17
2022-10-23T21:13:18.007Z,3.12
2022-10-23T21:15:47.877Z,4.33
2022-10-23T21:18:27.195Z,3.33
2022-10-23T21:20:49.920Z,3.40
2022-10-23T21:23:19.895Z,3.42
2022-10-23T21:25:49.796Z,2.97
2022-10-23T21:28:19.906Z,3.53
2022-10-23T21:30:49.768Z,3.40
2022-10-23T21:33:21.219Z,3.40
2022-10-23T21:35:58.457Z,2.80
2022-10-23T21:38:22.680Z,2.73
2022-10-23T21:40:52.560Z,2.97
2022-10-23T21:43:24.271Z,4.03
2022-10-23T21:45:56.756Z,3.17
2022-10-23T21:48:26.315Z,2.65
2022-10-23T21:51:02.798Z,3.02
2022-10-23T21:53:33.356Z,3.00
2022-10-23T21:56:05.983Z,3.10
2022-10-23T21:58:35.797Z,3.60
2022-10-23T22:01:07.661Z,3.37
2022-10-23T22:03:37.462Z,2.58
2022-10-23T22:06:07.242Z,6.07
2022-10-23T22:08:37.042Z,3.00
2022-10-23T22:11:07.261Z,2.37
2022-10-23T22:13:37.063Z,3.50
2022-10-23T22:16:07.046Z,3.27
2022-10-23T22:18:38.173Z,3.60
2022-10-23T22:21:20.657Z,3.70
2022-10-23T22:23:52.245Z,2.17
2022-10-23T22:26:33.687Z,3.13
2022-10-23T22:29:06.529Z,3.00
2022-10-23T22:31:37.847Z,2.87
2022-10-23T22:34:25.034Z,3.20
2022-10-23T22:36:41.732Z,3.27
2022-10-23T22:39:12.553Z,3.50
2022-10-23T22:44:14.616Z,3.07
2022-10-23T22:46:44.943Z,2.67
2022-10-23T22:49:14.667Z,3.37
2022-10-23T22:51:44.478Z,3.70
2022-10-23T22:54:14.314Z,3.00
2022-10-23T22:56:44.116Z,3.07
2022-10-23T22:59:13.717Z,4.00
2022-10-23T23:01:46.598Z,3.20
2022-10-23T23:06:49.790Z,3.50
2022-10-23T23:09:20.249Z,3.33
2022-10-23T23:11:52.988Z,3.37
2022-10-23T23:14:23.772Z,2.90
2022-10-23T23:16:54.606Z,2.80
2022-10-23T23:21:54.383Z,3.45
2022-10-23T23:24:24.353Z,2.97
2022-10-23T23:26:54.147Z,2.60
2022-10-23T23:29:23.671Z,3.13
2022-10-23T23:31:53.456Z,2.83
2022-10-23T23:34:23.052Z,2.70
2022-10-23T23:36:52.916Z,3.10
2022-10-23T23:39:22.744Z,3.60
2022-10-23T23:41:52.574Z,3.40
2022-10-23T23:44:22.397Z,3.15
2022-10-23T23:46:52.243Z,2.70
2022-10-23T23:49:22.215Z,3.55
2022-10-23T23:51:52.246Z,2.90
2022-10-23T23:54:22.066Z,3.58
2022-10-23T23:56:51.820Z,4.30
2022-10-23T23:59:21.648Z,3.35
